Airport View

Enter AWOS ICAO identifier for current METAR.

ex. KFNL

PAGL 202256Z AUTO 00000KT 10SM BKN017 OVC024 01/01 A3062 RMK AO2 RAB31E53 SLP363 P0000 T00110006 FZRANO

20 Oct 2020 23:09

Frequency: 135.750

Phone: 907-779-2228

Other Area AWOS: PAWM - PFEL - PFSH - PAKK

TAF AMD PAOM 201915Z 2019/2118 VRB03KT P6SM SCT015 TEMPO 2020/2024 6SM -SHRASN BKN015 FM210000 20005KT P6SM VCSH OVC025 FM210300 22005KT 5SM -RASN BR OVC015 FM210600 23005KT 3SM -RASN BR OVC015